DAUZ

In Aménas Airport

Aménas, Algeria
TAF DAUZ 212300Z 2200/2224 10008KT CAVOK BECMG 2209/2212 24014KT BECMG 2217/2219 32015KT PROB40 TEMPO 2219/2224 32015G30KT 3000 DRSA FEW040CB
Issued Valid From Valid To
Jan-21 @ 23:00 UTC
(an hour ago)
Jan-22 @ 00:00 UTC
(8 minutes ago)
Jan-23 @ 00:00 UTC
(in 24 hours)
Jan-22 @ 00:00 to Jan-22 @ 09:00
TAF DAUZ 212300Z 2200/2224 10008KT CAVOK
Wind Visibility Clouds Conditions
100° at 8 knots 10,000+ meters
  • No significant clouds
Becoming Jan-22 @ 09:00 to Jan-22 @ 17:00
BECMG 2209/2212 24014KT
Wind Visibility Clouds Conditions
240° at 14 knots 10,000+ meters
  • No significant clouds
Becoming Jan-22 @ 17:00 to Jan-23 @ 00:00
BECMG 2217/2219 32015KT
Wind Visibility Clouds Conditions
320° at 15 knots 10,000+ meters
  • No significant clouds
Temporary  (Probability 40%) Jan-22 @ 19:00 to Jan-23 @ 00:00
PROB40 TEMPO 2219/2224 32015G30KT 3000 DRSA FEW040CB
Wind Visibility Clouds Conditions
320° at 15 knots
 Gusting to 30 knots
2,993 meters
  • Few at 4,000' AGL
  • Low drifting
  • Sand
TAF DAUZ 212300Z 2200/2224 10008KT CAVOK BECMG 2209/2212 24014KT BECMG 2217/2219 32015KT PROB40 TEMPO 2219/2224 32015G30KT 3000 DRSA FEW040CB
Issued Jan-21 @ 23:00 UTC
(an hour ago)
Valid From Jan-22 @ 00:00 UTC
(8 minutes ago)
Valid To Jan-23 @ 00:00 UTC
(in 24 hours)
Jan-22 @ 00:00 - Jan-22 @ 09:00
Wind Visibility
100° at 8 knots 10,000+ meters
Clouds
  • No significant clouds
Conditions
Becoming Jan-22 @ 09:00 - Jan-22 @ 17:00
Wind Visibility
240° at 14 knots 10,000+ meters
Clouds
  • No significant clouds
Conditions
Becoming Jan-22 @ 17:00 - Jan-23 @ 00:00
Wind Visibility
320° at 15 knots 10,000+ meters
Clouds
  • No significant clouds
Conditions
Probability 40% Temporary Jan-22 @ 19:00 - Jan-23 @ 00:00
Wind Visibility
320° at 15 knots
 Gusting to 30 knots
2,993 meters
Clouds
  • Few at 4,000' AGL
Conditions
  • Low drifting
  • Sand